Domov               UVHVVR             MKGP            O straneh              
ZDRAVSTVENO VARSTVO RASTLIN
  MREŽA AGROMET. POSTAJ
 ► PROGNOSTIČNA OBVESTILA
AGROMETEOROLOŠKI PODATKI -
ARSO
OBVLADOVANJE TVEGANJ ZARADI
NEUGODNIH VREMENSKIH RAZMER
  ► NARAVNE NESREČE
  ► SUŠA/MOČA
  ► NAMAKANJE
  ► ŽLED (gozdarstvo)
KARTOGRAFSKI PRIKAZI
SPLETNE POVEZAVE
PROJEKTI IN PUBLIKACIJE

AGROMETEOROLOŠKA MREŽA: VREMENSKE POSTAJE IN FENOLOŠKA OPAZOVANJA

Pregled podatkov za lokacijo Žalec (PDC), meteorološka postaja 27261

Pregled senzorjev na lokaciji

ID Ime Zadnja
vrednost
Datum
zadnje
spremembe
Tip
senzorja
545 Temperatura 2 m ( °C) 23,22 °C 25.6.2017 03:45 Generic -40 - +60°C
549 Sončno sevanje (W/m2) 0,03 W/m2 25.6.2017 03:45 CMP3 2000 W/m²
550 Temperatura tal ( °C) 23,47 °C 25.6.2017 03:45 Generic -20 - +40 °C
551 Hitrost vetra (km/h) 3,65 km/h 25.6.2017 03:45 Generic km/h
552 Smer vetra (°) 252,98 ° 25.6.2017 03:45 Generic 0 - 360°
558 Maksimalna hitrost vetra (km/h) 64,09 km/h 25.6.2017 03:45 Generic km/h
1460 Padavine 0.2 mm (mm) 0 mm 25.6.2017 03:45 Generic
1461 Relativna vlaga 2 m (% RH) 60,19 % RH 25.6.2017 03:45 Generic 0 - 100 %
3751 Omočenost lista (U) 0 U 25.6.2017 03:45 A730WET

Pregled podatkov zadnjih 24 ur

Zap.
št.
Datum in čas Žalec (PDC)
Hitrost
vetra
Maksimalna
hitrost
vetra
Omočenost
lista
Padavine
0.2
mm
Relativna
vlaga
2
m
Smer
vetra
Sončno
sevanje
Temperatura
2
m
Temperatura
tal
0 25.6.2017 03:00 3,65 64,09 0 0 60,19 252,98 0,03 23,22 23,47
1 25.6.2017 02:30 3,27 63,97 0,07 0 63,65 218,83 0 23,66 23,54
2 25.6.2017 02:00 2,9 66,66 0,13 0 67,04 249,09 0,02 24,41 23,6
3 25.6.2017 01:30 2,77 61,51 8,07 0 81,85 293,44 0,07 22,31 23,66
4 25.6.2017 01:00 0,31 59,09 10 0 84,05 353,41 0,21 22,08 23,73
5 25.6.2017 00:30 1,17 60,16 10 0 81,97 351,56 0,07 22,29 23,77
6 25.6.2017 00:00 2,78 10 0 82,41 326,77 22,77 23,85
7 24.6.2017 23:30 1,25 10 0 82,38 180,99 22,63 23,92
8 24.6.2017 23:00 1,01 60,11 4,93 0 79,52 260,89 22,79 23,97
9 24.6.2017 22:30 2,26 62,43 4,13 0 77,38 243,51 23,71 24,05
10 24.6.2017 22:00 1,29 64,27 3,67 0 76,1 92,6 23,99 24,11
11 24.6.2017 21:30 1,15 65,54 2,2 0 73,95 154,9 24,73 24,14
12 24.6.2017 21:00 1,01 66,83 1,53 0 72,19 161,28 25,13 24,18
13 24.6.2017 20:30 1,04 68,39 1,3 0 70,66 127,15 25,72 24,2
14 24.6.2017 20:00 0,93 71,1 0,33 0 62,77 172,09 2,71 27,43 24,2
15 24.6.2017 19:30 1,73 72,37 0 0 55,15 174,24 9,52 29,13 24,21
16 24.6.2017 19:00 1,28 76,79 0 0 49,75 135,15 67,58 30,28 24,19
17 24.6.2017 18:30 2,35 77,11 0 0 47,23 240,61 137,24 30,81 24,17
18 24.6.2017 18:00 1,12 76,4 0 0 45,99 182,59 237,27 31,22 24,15
19 24.6.2017 17:30 2,16 73,64 0 0 48,81 238,98 145,24 30,24 24,14
20 24.6.2017 17:00 2,17 75,16 0 0 48 166,49 165,71 30,49 24,1
21 24.6.2017 16:30 2,57 73,18 0 0 48,76 54,13 146 29,97 24,05
22 24.6.2017 16:00 4,36 75,33 0 0 47,36 118,4 54,49 30,08 23,97
23 24.6.2017 15:30 5,45 72,23 0 0 44,55 166,27 68,2 31,09 23,85
24 24.6.2017 15:00 5,01 76,18 0 0 38,47 103,61 148,72 32,2 23,69
25 24.6.2017 14:30 6,56 78,01 0 0 37,96 172,02 727,78 32,84 23,53
26 24.6.2017 14:00 6,49 78,18 0 0 38,27 55,58 818,14 32,29 23,37
27 24.6.2017 13:30 6,35 79,77 0 0 39,4 79,33 847,47 31,8 23,14
28 24.6.2017 13:00 6,24 76,57 0 0 41,51 117,28 886,01 31,04 22,98
29 24.6.2017 12:30 6,32 76,28 0 0 43,41 165,85 894,23 30,24 22,84
30 24.6.2017 12:00 5,87 74,96 0 0 42,82 84,28 892,83 29,98 22,7
31 24.6.2017 11:30 5,11 75,33 0 0 43,87 157,78 881,3 29,2 22,58
32 24.6.2017 11:00 4,98 74,45 0 0 43,39 204,39 857,46 28,69 22,47
33 24.6.2017 10:30 5,11 72,08 0 0 43,61 105,39 821,71 27,75 22,37
34 24.6.2017 10:00 4,88 73,62 0 0 46,17 130,58 770,99 27,04 22,28
35 24.6.2017 09:30 4,64 69,1 0 0 49,68 106,82 716,57 26,33 22,22
36 24.6.2017 09:00 4,34 68,39 0 0 53,65 94,56 652,35 25,46 22,18
37 24.6.2017 08:30 4,14 67,02 0 0 55,13 116,34 576,32 24,8 22,16
38 24.6.2017 08:00 3,59 67 0 0 60,29 130,95 499,94 24 22,16
39 24.6.2017 07:30 2,47 64,61 0 0 68,96 273,33 419,93 22,66 22,2
40 24.6.2017 07:00 2,92 62,92 0,87 0 75,03 264,36 331,97 21,39 22,25
41 24.6.2017 06:30 2,19 62,17 9,37 0 78,65 122,1 248,79 20,47 22,3
42 24.6.2017 06:00 2,75 53,28 10 0 83,7 89,88 168,13 19,16 22,38
43 24.6.2017 05:30 3,16 45,29 10 0 87,2 145,34 83,51 18,43 22,47
44 24.6.2017 05:00 1,06 42,22 10 0 88,99 68,54 22,68 17,73 22,54
45 24.6.2017 04:30 0,73 42,49 10 0 87,68 280,54 6,76 17,79 22,61
© 2011 Ministrstvo za kmetijstvo, gozdarstvo in prehrano. Vse pravice pridržane.